Time;durP1;ratioP1;P1;durP2;ratioP2;P2;SDS_P1;SDS_P2;PMS_P1;PMS_P2;Temp;Humidity;BMP_temperature;BMP_pressure;BME280_temperature;BME280_humidity;BME280_pressure;Samples;Min_cycle;Max_cycle;Signal;HPM_P1;HPM_P2
2023/12/11 00:01:43;;;;;;;8.52;4.18;;;4.50;64.50;;;;;;4947886;29;20050;-80
2023/12/11 00:04:09;;;;;;;6.97;4.03;;;4.50;64.90;;;;;;4948451;28;20109;-79
2023/12/11 00:06:35;;;;;;;7.28;3.95;;;4.60;65.20;;;;;;4948261;29;20054;-79
2023/12/11 00:09:01;;;;;;;6.10;3.72;;;4.60;65.10;;;;;;4949199;28;20054;-78
2023/12/11 00:11:27;;;;;;;7.13;4.68;;;4.60;65.40;;;;;;4948908;29;20031;-80
2023/12/11 00:13:53;;;;;;;7.25;3.83;;;4.60;65.20;;;;;;4949147;28;20058;-80
2023/12/11 00:16:19;;;;;;;5.53;3.97;;;4.60;65.70;;;;;;4948002;28;20166;-80
2023/12/11 00:18:46;;;;;;;6.43;3.95;;;4.60;65.10;;;;;;4939838;29;20659;-79
2023/12/11 00:21:12;;;;;;;6.32;3.72;;;4.60;65.30;;;;;;4947559;29;20045;-80
2023/12/11 00:23:38;;;;;;;6.28;3.72;;;4.60;65.30;;;;;;4949373;28;20027;-80
2023/12/11 00:26:04;;;;;;;6.68;4.43;;;4.60;64.90;;;;;;4947476;28;20751;-79
2023/12/11 00:28:30;;;;;;;7.05;4.22;;;4.60;65.00;;;;;;4956440;28;20037;-80
2023/12/11 00:30:56;;;;;;;7.22;4.47;;;4.60;65.10;;;;;;4947670;28;20126;-80
2023/12/11 00:33:22;;;;;;;7.72;4.43;;;4.60;65.20;;;;;;4948157;28;20868;-80
2023/12/11 00:35:48;;;;;;;7.03;3.83;;;4.60;64.90;;;;;;4948382;29;20032;-80
2023/12/11 00:38:14;;;;;;;9.40;4.20;;;4.60;64.30;;;;;;4949037;28;20483;-81
2023/12/11 00:40:40;;;;;;;7.63;4.38;;;4.60;64.30;;;;;;4963578;28;20118;-80
2023/12/11 00:43:06;;;;;;;7.85;4.25;;;4.60;64.50;;;;;;4948430;29;20118;-81
2023/12/11 00:45:32;;;;;;;8.88;4.70;;;4.60;64.60;;;;;;4947825;28;20443;-80
2023/12/11 00:47:58;;;;;;;5.97;4.32;;;4.60;64.40;;;;;;4948910;29;20039;-81
2023/12/11 00:50:24;;;;;;;8.77;4.03;;;4.60;64.70;;;;;;4948205;28;20047;-79
2023/12/11 00:52:50;;;;;;;7.82;3.83;;;4.60;64.60;;;;;;4948431;28;20039;-81
2023/12/11 00:55:16;;;;;;;8.85;4.60;;;4.60;64.90;;;;;;4947419;28;20548;-81
2023/12/11 00:57:42;;;;;;;7.88;4.68;;;4.60;65.10;;;;;;4948412;28;20046;-81
2023/12/11 01:00:09;;;;;;;7.40;3.97;;;4.60;65.40;;;;;;4930820;29;20418;-80
2023/12/11 01:02:35;;;;;;;7.47;4.32;;;4.60;65.40;;;;;;4932338;29;20023;-79
2023/12/11 01:05:02;;;;;;;8.25;4.25;;;4.60;64.90;;;;;;4946966;29;20142;-77
2023/12/11 01:07:28;;;;;;;8.32;4.70;;;4.60;64.90;;;;;;4946389;28;20042;-79
2023/12/11 01:09:54;;;;;;;8.23;4.72;;;4.60;65.20;;;;;;4947521;28;20072;-78
2023/12/11 01:12:21;;;;;;;8.65;4.80;;;4.70;65.20;;;;;;4945563;28;21535;-78
2023/12/11 01:14:47;;;;;;;6.85;4.05;;;4.60;65.40;;;;;;4957783;28;20039;-79
2023/12/11 01:17:13;;;;;;;8.88;4.85;;;4.70;65.40;;;;;;4948140;28;20125;-78
2023/12/11 01:19:41;;;;;;;10.68;4.40;;;4.70;65.20;;;;;;4946645;28;20223;-79
2023/12/11 01:22:08;;;;;;;7.70;4.53;;;4.70;64.90;;;;;;4947361;28;20032;-79
2023/12/11 01:24:33;;;;;;;8.45;4.40;;;4.70;64.60;;;;;;4947106;28;20039;-77
2023/12/11 01:26:59;;;;;;;7.07;4.05;;;4.70;64.40;;;;;;4948244;28;20027;-78
2023/12/11 01:29:27;;;;;;;8.77;5.15;;;4.70;64.00;;;;;;4947316;28;20070;-77
2023/12/11 01:31:53;;;;;;;8.05;4.57;;;4.70;64.00;;;;;;4948124;28;20089;-77
2023/12/11 01:34:19;;;;;;;9.38;4.95;;;4.70;63.90;;;;;;4947845;28;20031;-77
2023/12/11 01:36:45;;;;;;;9.45;5.32;;;4.70;63.40;;;;;;4947827;28;20097;-78
2023/12/11 01:39:11;;;;;;;8.05;5.18;;;4.70;63.50;;;;;;4948521;28;20121;-77
2023/12/11 01:41:38;;;;;;;8.30;5.07;;;4.70;63.50;;;;;;4948426;29;20031;-77
2023/12/11 01:44:04;;;;;;;7.63;4.80;;;4.60;63.60;;;;;;4947500;28;20031;-77
2023/12/11 01:46:31;;;;;;;7.60;4.78;;;4.60;63.80;;;;;;4945719;28;20028;-76
2023/12/11 01:48:58;;;;;;;10.57;4.65;;;4.70;64.00;;;;;;4946308;28;20044;-77
2023/12/11 01:51:25;;;;;;;8.38;4.68;;;4.60;63.90;;;;;;4947597;28;20047;-77
2023/12/11 01:53:52;;;;;;;8.63;5.03;;;4.70;64.10;;;;;;4948481;28;20034;-78
2023/12/11 01:56:20;;;;;;;8.23;5.00;;;4.70;64.00;;;;;;4947087;28;20035;-79
2023/12/11 01:58:47;;;;;;;9.95;5.07;;;4.70;63.90;;;;;;4947696;28;20077;-77
2023/12/11 02:01:14;;;;;;;8.75;4.72;;;4.70;63.90;;;;;;4948109;28;20081;-77
2023/12/11 02:03:41;;;;;;;9.55;5.32;;;4.70;64.10;;;;;;4946856;29;20078;-77
2023/12/11 02:06:07;;;;;;;9.07;5.25;;;4.70;63.90;;;;;;4947160;28;20505;-77
2023/12/11 02:08:34;;;;;;;7.32;4.95;;;4.70;63.90;;;;;;4948056;29;20035;-76
2023/12/11 02:11:00;;;;;;;9.15;5.43;;;4.70;63.80;;;;;;4947384;28;20036;-77
2023/12/11 02:13:26;;;;;;;7.68;4.95;;;4.70;63.70;;;;;;4946318;28;20422;-80
2023/12/11 02:15:52;;;;;;;9.32;4.78;;;4.70;64.00;;;;;;4946818;28;20493;-79
2023/12/11 02:18:18;;;;;;;9.02;5.00;;;4.70;63.90;;;;;;4947052;28;20446;-78
2023/12/11 02:20:45;;;;;;;10.55;5.82;;;4.70;63.90;;;;;;4950273;28;20042;-76
2023/12/11 02:23:27;;;;;;;8.93;5.43;;;4.70;63.80;;;;;;4951024;28;20506;-77
2023/12/11 02:26:07;;;;;;;11.50;5.45;;;4.70;63.90;;;;;;4952097;28;20487;-77
2023/12/11 02:28:33;;;;;;;10.75;5.28;;;4.70;63.90;;;;;;4950967;28;20510;-78
2023/12/11 02:30:59;;;;;;;13.35;5.93;;;4.70;64.10;;;;;;4950140;28;20430;-78
2023/12/11 02:33:25;;;;;;;9.00;5.55;;;4.70;64.10;;;;;;4941677;28;20526;-79
2023/12/11 02:35:51;;;;;;;6.63;4.55;;;4.70;64.30;;;;;;4950525;28;20031;-78
2023/12/11 02:38:17;;;;;;;8.82;4.82;;;4.80;64.60;;;;;;4950028;28;20039;-77
2023/12/11 02:40:43;;;;;;;9.52;5.32;;;4.70;64.60;;;;;;4950656;28;20043;-78
2023/12/11 02:43:09;;;;;;;10.23;5.80;;;4.80;64.70;;;;;;4950104;28;20422;-79
2023/12/11 02:45:36;;;;;;;10.25;5.30;;;4.80;64.50;;;;;;4946356;29;20038;-78
2023/12/11 02:48:04;;;;;;;10.13;5.60;;;4.80;64.40;;;;;;4951433;28;20027;-78
2023/12/11 02:50:31;;;;;;;9.05;5.35;;;4.80;64.50;;;;;;4949955;29;20050;-77
2023/12/11 02:52:58;;;;;;;9.77;5.88;;;4.80;64.70;;;;;;4950709;28;20043;-77
2023/12/11 02:55:25;;;;;;;9.57;5.22;;;4.80;64.40;;;;;;4949817;28;20598;-77
2023/12/11 02:57:56;;;;;;;9.38;5.15;;;4.80;64.60;;;;;;4950411;28;20039;-77
2023/12/11 03:00:23;;;;;;;10.32;5.50;;;4.80;64.70;;;;;;4933702;28;20031;-78
2023/12/11 03:02:49;;;;;;;8.55;5.40;;;4.80;64.40;;;;;;4938017;29;20039;-77
2023/12/11 03:05:15;;;;;;;10.77;5.38;;;4.80;64.30;;;;;;4949120;28;20094;-78
2023/12/11 03:07:41;;;;;;;9.80;5.07;;;4.90;64.50;;;;;;4950219;28;20035;-79
2023/12/11 03:10:08;;;;;;;10.80;6.05;;;4.80;65.00;;;;;;4949205;29;20039;-78
2023/12/11 03:12:34;;;;;;;9.32;5.43;;;4.80;64.70;;;;;;4949775;28;20035;-78
2023/12/11 03:15:01;;;;;;;9.80;5.90;;;4.80;64.70;;;;;;4949824;28;20374;-77
2023/12/11 03:17:27;;;;;;;9.93;5.32;;;4.90;64.90;;;;;;4949889;28;20044;-76
2023/12/11 03:19:53;;;;;;;8.75;5.28;;;4.90;64.90;;;;;;4950059;28;20042;-78
2023/12/11 03:22:20;;;;;;;9.88;5.50;;;4.90;64.50;;;;;;4949167;28;20675;-79
2023/12/11 03:24:46;;;;;;;9.63;5.72;;;4.90;64.50;;;;;;4949576;28;20490;-78
2023/12/11 03:27:13;;;;;;;9.95;5.70;;;4.90;64.40;;;;;;4948530;28;20584;-78
2023/12/11 03:29:41;;;;;;;9.27;5.65;;;4.90;64.10;;;;;;4942444;28;20039;-78
2023/12/11 03:32:07;;;;;;;10.75;5.70;;;4.90;64.30;;;;;;4948359;28;20050;-79
2023/12/11 03:34:33;;;;;;;10.95;5.65;;;4.90;64.10;;;;;;4949787;28;20039;-79
2023/12/11 03:36:59;;;;;;;10.48;5.88;;;4.90;64.20;;;;;;4948027;28;20038;-79
2023/12/11 03:39:25;;;;;;;8.50;5.55;;;4.90;64.20;;;;;;4949631;28;20122;-77
2023/12/11 03:41:52;;;;;;;9.38;5.38;;;5.00;64.10;;;;;;4950280;28;20093;-80
2023/12/11 03:44:18;;;;;;;9.95;5.70;;;4.90;64.10;;;;;;4948670;28;20032;-77
2023/12/11 03:46:44;;;;;;;8.75;5.65;;;5.00;64.30;;;;;;4949171;28;20035;-78
2023/12/11 03:49:10;;;;;;;9.35;5.72;;;5.00;64.40;;;;;;4949011;28;20158;-77
2023/12/11 03:51:36;;;;;;;10.18;5.50;;;5.00;64.10;;;;;;4949478;28;20043;-79
2023/12/11 03:54:02;;;;;;;9.25;5.40;;;5.00;64.00;;;;;;4944283;29;20058;-78
2023/12/11 03:56:28;;;;;;;11.65;5.30;;;5.00;64.00;;;;;;4949711;28;20081;-78
2023/12/11 03:58:54;;;;;;;8.85;5.03;;;5.00;64.10;;;;;;4950192;28;20035;-77
2023/12/11 04:01:20;;;;;;;9.38;5.57;;;5.00;63.60;;;;;;4948423;28;20035;-78
2023/12/11 04:03:46;;;;;;;12.45;5.95;;;5.00;63.80;;;;;;4947938;28;20331;-78
2023/12/11 04:06:12;;;;;;;8.23;5.25;;;5.00;64.00;;;;;;4948860;28;20093;-78
2023/12/11 04:08:40;;;;;;;11.40;5.50;;;5.00;64.10;;;;;;4947863;29;20082;-77
2023/12/11 04:11:07;;;;;;;9.80;5.50;;;5.00;63.80;;;;;;4948096;28;20035;-79
2023/12/11 04:13:34;;;;;;;8.45;5.22;;;5.00;64.10;;;;;;4948325;28;20094;-78
2023/12/11 04:16:03;;;;;;;10.05;5.97;;;5.00;63.80;;;;;;4948300;28;20027;-80
2023/12/11 04:18:30;;;;;;;10.77;6.13;;;5.00;63.80;;;;;;4952137;28;20417;-84
2023/12/11 04:20:57;;;;;;;9.07;5.47;;;5.10;63.50;;;;;;4948388;28;20043;-80
2023/12/11 04:23:24;;;;;;;7.82;5.25;;;5.10;63.60;;;;;;4943416;28;20050;-83
2023/12/11 04:25:51;;;;;;;8.75;5.45;;;5.10;63.50;;;;;;4949595;29;20377;-84
2023/12/11 04:28:17;;;;;;;10.30;5.65;;;5.10;63.20;;;;;;4931567;29;20050;-84
2023/12/11 04:30:43;;;;;;;8.10;5.25;;;5.10;62.70;;;;;;4928849;29;20039;-81
2023/12/11 04:33:09;;;;;;;12.27;5.47;;;5.10;63.00;;;;;;4949325;28;20074;-85
2023/12/11 04:35:35;;;;;;;7.18;5.20;;;5.10;62.80;;;;;;4948007;28;20082;-78
2023/12/11 04:38:01;;;;;;;10.07;5.47;;;5.10;62.60;;;;;;4946790;28;20031;-80
2023/12/11 04:40:27;;;;;;;9.82;5.20;;;5.10;62.80;;;;;;4946865;28;20498;-79
2023/12/11 04:42:53;;;;;;;10.02;5.63;;;5.10;63.10;;;;;;4955506;28;20038;-80
2023/12/11 04:45:19;;;;;;;11.95;6.18;;;5.10;62.90;;;;;;4930320;28;20506;-82
2023/12/11 04:47:45;;;;;;;8.20;5.05;;;5.10;62.90;;;;;;4947548;28;20106;-80
2023/12/11 04:50:11;;;;;;;10.25;5.97;;;5.10;63.00;;;;;;4944240;28;20519;-87
2023/12/11 04:52:38;;;;;;;9.40;5.20;;;5.10;63.20;;;;;;4949030;29;20130;-84
2023/12/11 04:55:04;;;;;;;10.63;5.72;;;5.20;63.50;;;;;;4938329;28;20535;-82
2023/12/11 04:57:30;;;;;;;9.98;5.95;;;5.10;63.30;;;;;;4912209;29;20728;-85
2023/12/11 04:59:56;;;;;;;9.88;5.47;;;5.10;63.40;;;;;;4961617;28;20494;-84
2023/12/11 05:02:22;;;;;;;9.55;5.57;;;5.10;63.80;;;;;;4930820;29;20109;-83
2023/12/11 05:04:48;;;;;;;9.60;5.53;;;5.20;63.90;;;;;;4948940;28;20051;-81
2023/12/11 05:07:14;;;;;;;9.90;5.78;;;5.20;64.00;;;;;;4948130;28;20038;-84
2023/12/11 05:09:40;;;;;;;10.30;5.57;;;5.20;64.00;;;;;;4946890;28;20076;-84
2023/12/11 05:12:07;;;;;;;11.60;5.88;;;5.20;64.10;;;;;;4930426;28;20054;-82
2023/12/11 05:14:33;;;;;;;10.02;5.90;;;5.20;64.50;;;;;;4927153;29;20043;-84
2023/12/11 05:16:59;;;;;;;9.10;5.15;;;5.20;64.90;;;;;;4938528;29;20064;-83
2023/12/11 05:19:25;;;;;;;12.48;5.47;;;5.30;64.90;;;;;;4947273;28;20035;-85
2023/12/11 05:21:51;;;;;;;11.32;6.03;;;5.30;65.40;;;;;;4924711;29;20062;-85
2023/12/11 05:24:17;;;;;;;10.80;6.05;;;5.30;65.30;;;;;;4961971;28;20039;-84
2023/12/11 05:26:43;;;;;;;10.63;5.53;;;5.30;65.00;;;;;;4930853;29;20031;-87
2023/12/11 05:29:09;;;;;;;11.85;6.05;;;5.30;64.80;;;;;;4929221;29;20047;-87
2023/12/11 05:31:35;;;;;;;9.38;5.38;;;5.30;64.90;;;;;;4938387;29;20072;-88
2023/12/11 05:34:02;;;;;;;9.95;5.75;;;5.30;65.10;;;;;;4928532;29;20047;-86
2023/12/11 05:36:28;;;;;;;13.02;6.15;;;5.30;64.70;;;;;;4946842;29;20066;-86
2023/12/11 05:38:54;;;;;;;14.52;6.78;;;5.30;64.50;;;;;;4938904;29;20494;-87
2023/12/11 05:41:21;;;;;;;8.80;5.25;;;5.30;64.70;;;;;;4930480;29;20070;-87
2023/12/11 05:43:47;;;;;;;11.07;6.40;;;5.30;64.90;;;;;;4946267;29;20641;-87
2023/12/11 05:46:13;;;;;;;9.40;5.35;;;5.30;64.70;;;;;;4946410;29;20038;-85
2023/12/11 05:48:39;;;;;;;9.35;5.82;;;5.30;64.30;;;;;;4938674;28;20035;-84
2023/12/11 05:51:06;;;;;;;11.00;5.63;;;5.30;64.40;;;;;;4930919;28;20035;-81
2023/12/11 05:53:32;;;;;;;10.02;5.18;;;5.30;64.40;;;;;;4947775;28;20062;-83
2023/12/11 05:55:58;;;;;;;9.18;5.50;;;5.30;64.10;;;;;;4951069;28;20067;-80
2023/12/11 05:58:24;;;;;;;7.90;4.60;;;5.40;64.30;;;;;;4926344;29;20039;-84
2023/12/11 06:00:50;;;;;;;7.10;4.50;;;5.50;70.80;;;;;;4950179;28;20036;-84
2023/12/11 06:03:16;;;;;;;8.05;4.50;;;5.60;76.60;;;;;;4934543;28;20082;-80
2023/12/11 06:05:42;;;;;;;8.07;4.38;;;5.80;80.10;;;;;;4953054;29;20471;-80
2023/12/11 06:08:08;;;;;;;7.88;3.95;;;6.00;82.70;;;;;;4957785;28;20050;-80
2023/12/11 06:10:35;;;;;;;7.88;4.00;;;6.20;83.70;;;;;;4951122;28;20031;-80
2023/12/11 06:13:01;;;;;;;8.85;4.80;;;6.30;81.60;;;;;;4946272;28;20585;-79
2023/12/11 06:15:27;;;;;;;8.80;5.20;;;6.30;79.40;;;;;;4948143;28;20041;-80
2023/12/11 06:17:53;;;;;;;10.63;5.65;;;6.30;76.80;;;;;;4951487;29;20066;-78
2023/12/11 06:20:20;;;;;;;7.88;4.93;;;6.30;74.70;;;;;;4942698;28;20044;-79
2023/12/11 06:22:49;;;;;;;8.98;5.20;;;6.30;73.00;;;;;;4944925;29;20082;-79
2023/12/11 06:25:15;;;;;;;9.43;5.15;;;6.30;72.30;;;;;;4950542;28;20031;-79
2023/12/11 06:27:41;;;;;;;8.60;5.13;;;6.30;71.30;;;;;;4949985;28;20072;-79
2023/12/11 06:30:07;;;;;;;9.60;5.50;;;6.30;70.60;;;;;;4949724;28;20046;-79
2023/12/11 06:32:34;;;;;;;9.90;6.30;;;6.30;69.80;;;;;;4956885;28;20027;-79
2023/12/11 06:35:00;;;;;;;11.45;5.45;;;6.30;69.10;;;;;;4949806;28;20573;-79
2023/12/11 06:37:26;;;;;;;7.93;5.32;;;6.30;68.60;;;;;;4932495;29;20065;-79
2023/12/11 06:39:52;;;;;;;7.80;5.18;;;6.30;68.60;;;;;;4957014;28;20046;-79
2023/12/11 06:42:18;;;;;;;8.65;5.60;;;6.30;68.20;;;;;;4949503;28;20094;-78
2023/12/11 06:44:44;;;;;;;8.10;5.28;;;6.30;67.90;;;;;;4950764;28;20023;-79
2023/12/11 06:47:11;;;;;;;9.73;5.57;;;6.20;67.60;;;;;;4950259;28;20382;-79
2023/12/11 06:49:37;;;;;;;9.05;5.55;;;6.30;67.40;;;;;;4948862;28;20099;-83
2023/12/11 06:52:04;;;;;;;9.35;5.63;;;6.20;67.20;;;;;;4927507;29;20035;-83
2023/12/11 06:54:30;;;;;;;9.40;5.47;;;6.20;67.10;;;;;;4945137;28;20038;-82
2023/12/11 06:56:56;;;;;;;9.63;5.45;;;6.20;66.80;;;;;;4947632;28;20036;-82
2023/12/11 06:59:22;;;;;;;9.52;5.07;;;6.20;66.60;;;;;;4931778;29;20039;-82
2023/12/11 07:01:48;;;;;;;9.10;5.20;;;6.20;66.50;;;;;;4915138;29;20041;-80
2023/12/11 07:04:14;;;;;;;7.90;5.03;;;6.10;66.30;;;;;;4955586;28;20083;-80
2023/12/11 07:06:40;;;;;;;7.70;4.72;;;6.10;66.30;;;;;;4930931;29;20681;-82
2023/12/11 07:09:07;;;;;;;8.25;5.25;;;6.20;66.40;;;;;;4948317;28;20035;-81
2023/12/11 07:11:42;;;;;;;10.02;5.00;;;6.10;66.20;;;;;;4947837;29;20536;-81
2023/12/11 07:15:21;;;;;;;;;;;;;;;;;;;;;
2023/12/11 07:18:05;;;;;;;8.93;5.03;;;6.10;65.70;;;;;;4919547;29;20130;-82
2023/12/11 07:20:53;;;;;;;8.43;5.00;;;6.10;65.50;;;;;;4932277;29;20050;-84
2023/12/11 07:28:42;;;;;;;10.98;5.25;;;6.10;65.10;;;;;;4818132;29;20046;-84
2023/12/11 07:31:18;;;;;;;8.32;5.35;;;6.00;64.80;;;;;;4869520;29;20040;-83
2023/12/11 07:38:46;;;;;;;6.63;4.53;;;6.00;65.30;;;;;;4879201;29;20573;-83
2023/12/11 07:42:07;;;;;;;8.07;4.68;;;6.00;65.30;;;;;;4877261;29;20141;-82
2023/12/11 07:44:56;;;;;;;8.95;4.72;;;6.00;65.20;;;;;;4843245;29;20040;-83
2023/12/11 07:48:47;;;;;;;8.52;4.65;;;6.00;65.00;;;;;;4879754;29;20040;-84
2023/12/11 07:51:23;;;;;;;8.45;4.50;;;6.00;64.60;;;;;;4830113;29;20160;-84
2023/12/11 07:54:02;;;;;;;7.82;4.78;;;6.00;64.30;;;;;;4885243;29;20029;-80
2023/12/11 07:56:51;;;;;;;6.28;4.50;;;6.00;64.10;;;;;;4852681;29;20184;-80
2023/12/11 07:59:30;;;;;;;8.27;4.90;;;6.00;64.30;;;;;;4862109;29;20066;-81
2023/12/11 08:02:00;;;;;;;7.60;4.63;;;6.00;64.20;;;;;;4870273;29;20048;-82
2023/12/11 08:04:34;;;;;;;8.50;5.22;;;6.00;64.10;;;;;;4894405;29;20506;-81
2023/12/11 08:07:08;;;;;;;8.30;4.70;;;6.00;63.90;;;;;;4940392;29;20050;-82
2023/12/11 08:09:40;;;;;;;7.85;4.90;;;6.00;64.10;;;;;;4887435;29;20615;-80
2023/12/11 08:12:12;;;;;;;8.73;4.67;;;6.00;64.00;;;;;;4822960;29;20052;-80
2023/12/11 08:14:40;;;;;;;8.77;5.03;;;6.00;63.80;;;;;;4953205;28;20106;-79
2023/12/11 08:17:10;;;;;;;8.70;4.70;;;6.00;64.20;;;;;;4930400;29;20049;-81
2023/12/11 08:19:36;;;;;;;8.48;5.18;;;6.00;64.20;;;;;;4932088;29;20035;-80
2023/12/11 08:22:03;;;;;;;7.22;4.47;;;6.00;64.00;;;;;;4944274;29;20508;-80
2023/12/11 08:24:31;;;;;;;8.05;4.65;;;6.00;63.70;;;;;;4928681;29;20051;-81
2023/12/11 08:27:00;;;;;;;9.57;4.93;;;6.00;63.70;;;;;;4914813;29;20047;-81
2023/12/11 08:29:26;;;;;;;8.52;4.85;;;6.00;63.50;;;;;;4932622;29;20069;-80
2023/12/11 08:32:13;;;;;;;7.47;4.40;;;6.00;63.20;;;;;;4938923;29;20035;-81
2023/12/11 08:38:37;;;;;;;;;;;;;;;;;;;;;
2023/12/11 08:41:50;;;;;;;8.27;5.32;;;6.00;63.50;;;;;;4931461;29;20343;-83
2023/12/11 08:44:33;;;;;;;7.40;4.60;;;5.90;63.30;;;;;;4911648;29;20129;-81
2023/12/11 08:47:29;;;;;;;10.05;5.13;;;5.90;63.40;;;;;;4908567;28;20510;-81
2023/12/11 08:50:30;;;;;;;8.25;4.43;;;5.90;63.20;;;;;;4918446;28;20034;-81
2023/12/11 08:53:52;;;;;;;8.05;5.32;;;6.00;63.50;;;;;;4939049;29;20070;-83
2023/12/11 09:01:05;;;;;;;;;;;;;;;;;;;;;
2023/12/11 09:04:05;;;;;;;7.05;4.63;;;6.00;63.40;;;;;;4885715;29;20058;-81
2023/12/11 09:06:34;;;;;;;6.68;4.50;;;6.00;62.80;;;;;;4923029;29;20554;-81
2023/12/11 09:09:03;;;;;;;7.47;4.60;;;6.00;62.70;;;;;;4909747;29;20027;-81
2023/12/11 09:11:51;;;;;;;7.00;4.68;;;6.10;62.60;;;;;;4896848;29;20176;-80
2023/12/11 09:14:57;;;;;;;7.25;4.68;;;6.00;62.60;;;;;;4890277;29;20554;-80
2023/12/11 09:18:17;;;;;;;;;;;;;;;;;;;;;
2023/12/11 09:21:16;;;;;;;7.82;4.50;;;6.00;62.40;;;;;;4796652;29;20180;-80
2023/12/11 09:23:48;;;;;;;7.28;4.15;;;6.00;62.60;;;;;;4805696;29;20029;-79
2023/12/11 09:27:35;;;;;;;8.20;4.78;;;6.00;62.50;;;;;;4805518;29;20437;-78
2023/12/11 09:30:10;;;;;;;7.03;4.45;;;6.00;62.30;;;;;;4818270;29;20037;-84
2023/12/11 09:32:37;;;;;;;8.75;4.90;;;6.00;62.60;;;;;;4830667;29;20522;-83
2023/12/11 09:35:27;;;;;;;8.60;5.03;;;6.00;62.40;;;;;;4835892;29;20061;-83
2023/12/11 09:38:42;;;;;;;7.13;4.07;;;6.00;62.40;;;;;;4835284;29;20044;-86
2023/12/11 09:41:56;;;;;;;;;;;;;;;;;;;;;
2023/12/11 09:44:51;;;;;;;8.07;4.80;;;5.90;62.40;;;;;;4875749;29;20141;-80
2023/12/11 09:48:07;;;;;;;9.43;4.60;;;6.00;62.80;;;;;;4847991;29;20053;-80
2023/12/11 09:51:31;;;;;;;8.82;4.85;;;6.00;62.70;;;;;;4787456;29;20764;-81
2023/12/11 09:54:43;;;;;;;10.00;5.38;;;6.00;62.70;;;;;;4814722;29;20802;-82
2023/12/11 09:57:48;;;;;;;9.07;5.07;;;6.00;63.20;;;;;;4825040;29;20102;-83
2023/12/11 10:00:50;;;;;;;8.30;4.63;;;6.00;63.20;;;;;;4834037;29;20465;-78
2023/12/11 10:03:24;;;;;;;8.48;4.90;;;6.00;63.00;;;;;;4839895;29;20190;-83
2023/12/11 10:05:59;;;;;;;10.55;4.68;;;6.00;63.20;;;;;;4840017;29;20045;-86
2023/12/11 10:09:24;;;;;;;9.17;5.13;;;6.10;63.00;;;;;;4846881;29;20453;-83
2023/12/11 10:16:31;;;;;;;6.65;4.22;;;6.10;62.60;;;;;;4775576;29;20053;-85
2023/12/11 10:19:48;;;;;;;9.95;4.85;;;6.00;62.60;;;;;;4787509;29;20535;-81
2023/12/11 10:23:12;;;;;;;9.23;4.97;;;6.10;62.40;;;;;;4763411;29;20051;-79
2023/12/11 10:25:46;;;;;;;7.70;4.65;;;6.00;62.60;;;;;;4857654;29;20101;-82
2023/12/11 10:28:37;;;;;;;7.35;4.47;;;6.10;62.70;;;;;;4858711;29;20041;-81
2023/12/11 10:31:43;;;;;;;7.55;4.22;;;6.10;62.80;;;;;;4820282;29;20149;-81
2023/12/11 10:34:56;;;;;;;7.55;4.63;;;6.10;63.00;;;;;;4836228;29;20433;-80
2023/12/11 10:37:46;;;;;;;8.30;4.10;;;6.10;63.00;;;;;;4839284;29;20041;-80
2023/12/11 10:41:07;;;;;;;8.40;4.78;;;6.00;63.00;;;;;;4870968;29;20131;-81
2023/12/11 10:43:43;;;;;;;7.95;4.10;;;6.00;63.20;;;;;;4874337;29;20044;-81
2023/12/11 10:46:38;;;;;;;8.07;4.57;;;6.00;63.30;;;;;;4922344;29;20533;-80
2023/12/11 10:49:04;;;;;;;8.80;4.78;;;6.00;63.40;;;;;;4926790;29;20121;-81
2023/12/11 10:51:46;;;;;;;;;;;;;;;;;;;;;
2023/12/11 10:55:22;;;;;;;8.55;4.65;;;6.00;63.30;;;;;;4941529;28;20462;-80
2023/12/11 10:57:50;;;;;;;8.13;4.68;;;6.00;63.20;;;;;;4941062;28;20487;-81
2023/12/11 11:00:30;;;;;;;8.23;4.68;;;6.00;63.40;;;;;;4926882;28;21522;-80
2023/12/11 11:03:00;;;;;;;7.45;4.20;;;6.00;62.80;;;;;;4917382;29;20398;-81
2023/12/11 11:05:31;;;;;;;8.20;4.50;;;6.10;62.80;;;;;;4915622;29;20039;-80
2023/12/11 11:08:34;;;;;;;7.13;4.13;;;6.10;62.80;;;;;;4909911;29;20102;-80
2023/12/11 11:11:10;;;;;;;7.40;4.30;;;6.10;62.80;;;;;;4939816;28;20040;-80
2023/12/11 11:14:02;;;;;;;6.97;3.90;;;6.10;62.60;;;;;;4932744;29;20038;-81
2023/12/11 11:16:54;;;;;;;7.05;4.05;;;6.10;63.20;;;;;;4932615;29;20067;-81
2023/12/11 11:19:20;;;;;;;4.88;3.58;;;6.10;62.90;;;;;;4946723;28;20093;-81
2023/12/11 11:22:10;;;;;;;6.78;4.00;;;6.10;63.00;;;;;;4949967;28;20027;-81
2023/12/11 11:24:36;;;;;;;6.10;3.72;;;6.10;62.90;;;;;;4941711;28;20035;-81
2023/12/11 11:27:03;;;;;;;7.45;4.32;;;6.10;62.80;;;;;;4950305;28;20031;-81
2023/12/11 11:29:45;;;;;;;7.78;4.43;;;6.10;62.70;;;;;;4949969;28;20474;-81
2023/12/11 11:32:12;;;;;;;6.40;4.03;;;6.10;62.50;;;;;;4964799;28;20085;-81
2023/12/11 11:34:41;;;;;;;7.95;4.15;;;6.10;62.30;;;;;;4928430;29;20070;-80
2023/12/11 11:37:13;;;;;;;7.53;4.05;;;6.10;62.10;;;;;;4948199;28;20043;-80
2023/12/11 11:39:58;;;;;;;8.13;4.47;;;6.10;61.90;;;;;;4948626;29;21018;-81
2023/12/11 11:42:32;;;;;;;7.63;4.53;;;6.00;61.80;;;;;;4948342;29;20035;-80
2023/12/11 11:45:11;;;;;;;5.55;4.20;;;6.10;62.30;;;;;;4948693;29;20074;-81
2023/12/11 11:47:37;;;;;;;7.82;4.10;;;6.00;62.20;;;;;;4950389;29;20122;-81
2023/12/11 11:50:21;;;;;;;8.50;4.25;;;6.10;62.10;;;;;;4948284;28;20104;-84
2023/12/11 11:52:53;;;;;;;7.75;4.03;;;6.10;62.20;;;;;;4946041;28;20290;-82
2023/12/11 11:55:19;;;;;;;8.73;3.72;;;6.00;62.40;;;;;;4942959;29;20035;-83
2023/12/11 11:57:45;;;;;;;7.65;4.07;;;6.00;62.50;;;;;;4920883;29;20055;-84
2023/12/11 12:00:12;;;;;;;6.38;3.67;;;6.10;62.70;;;;;;4946097;28;20042;-87
2023/12/11 12:02:38;;;;;;;6.00;3.88;;;6.00;62.80;;;;;;4942061;29;20479;-83
2023/12/11 12:05:11;;;;;;;6.80;4.20;;;6.10;62.80;;;;;;4915528;29;20043;-83
2023/12/11 12:07:40;;;;;;;6.90;4.20;;;6.10;62.60;;;;;;4928008;29;20439;-81
2023/12/11 12:10:11;;;;;;;8.20;4.47;;;6.10;63.00;;;;;;4928383;29;20122;-82
2023/12/11 12:12:37;;;;;;;7.60;4.45;;;6.10;62.70;;;;;;4931188;29;20482;-80
2023/12/11 12:15:05;;;;;;;6.32;3.53;;;6.10;62.80;;;;;;4941720;28;20054;-82
2023/12/11 12:17:33;;;;;;;6.35;3.83;;;6.10;62.80;;;;;;4930562;29;20403;-83
2023/12/11 12:19:59;;;;;;;5.30;3.47;;;6.10;62.90;;;;;;4956625;28;20040;-79
2023/12/11 12:22:25;;;;;;;6.40;4.07;;;6.10;62.70;;;;;;4943623;28;20526;-81
2023/12/11 12:24:51;;;;;;;5.25;3.55;;;6.10;62.50;;;;;;4961116;28;20706;-82
2023/12/11 12:27:25;;;;;;;6.72;4.13;;;6.10;62.30;;;;;;4941299;28;20090;-80
2023/12/11 12:29:51;;;;;;;4.85;3.50;;;6.10;62.50;;;;;;4945390;29;20386;-80
2023/12/11 12:32:18;;;;;;;6.10;3.88;;;6.10;63.00;;;;;;4941523;28;20534;-80
2023/12/11 12:34:46;;;;;;;6.90;3.72;;;6.20;63.10;;;;;;4943385;29;20094;-80
2023/12/11 12:37:14;;;;;;;6.22;3.80;;;6.10;63.00;;;;;;4943321;29;20510;-80
2023/12/11 12:39:40;;;;;;;5.65;3.38;;;6.10;62.90;;;;;;4940866;28;20165;-78
2023/12/11 12:42:07;;;;;;;6.75;3.83;;;6.10;62.60;;;;;;4944533;28;20031;-80
2023/12/11 12:44:40;;;;;;;5.32;3.72;;;6.10;62.50;;;;;;4944184;29;20031;-79
2023/12/11 12:47:08;;;;;;;11.82;4.07;;;6.10;63.00;;;;;;4944340;29;20073;-78
2023/12/11 12:49:34;;;;;;;5.80;3.70;;;6.10;62.80;;;;;;4947535;29;20031;-82
2023/12/11 12:52:01;;;;;;;7.60;3.90;;;6.10;62.90;;;;;;4946543;29;20540;-82
2023/12/11 12:54:27;;;;;;;5.35;3.67;;;6.00;62.80;;;;;;4947259;28;20414;-81
2023/12/11 12:56:55;;;;;;;6.22;3.67;;;6.10;62.80;;;;;;4949113;29;20031;-81
2023/12/11 12:59:25;;;;;;;6.15;3.85;;;6.10;62.70;;;;;;4940472;28;20074;-85
2023/12/11 13:01:55;;;;;;;7.05;3.28;;;6.10;62.80;;;;;;4913018;29;20395;-85
2023/12/11 13:04:22;;;;;;;5.72;3.55;;;6.10;62.60;;;;;;4925418;29;20482;-85
2023/12/11 13:06:48;;;;;;;5.40;2.92;;;6.10;62.90;;;;;;4926050;29;20089;-86
2023/12/11 13:09:31;;;;;;;4.70;3.00;;;6.10;62.90;;;;;;4955400;28;20467;-85
2023/12/11 13:11:58;;;;;;;6.97;3.15;;;6.10;62.80;;;;;;4962780;28;20043;-83
2023/12/11 13:14:27;;;;;;;4.13;2.95;;;6.10;62.70;;;;;;4938070;29;20047;-81
2023/12/11 13:16:54;;;;;;;5.72;3.47;;;6.10;63.10;;;;;;4930046;29;20530;-86
2023/12/11 13:19:20;;;;;;;6.18;3.55;;;6.10;63.10;;;;;;4947549;28;20889;-82
2023/12/11 13:21:47;;;;;;;5.85;3.50;;;6.10;62.90;;;;;;4946670;28;20039;-86
2023/12/11 13:24:13;;;;;;;5.10;3.13;;;6.20;62.70;;;;;;4946454;28;20176;-89
2023/12/11 13:26:39;;;;;;;6.45;3.47;;;6.20;62.90;;;;;;4916550;29;20124;-89
2023/12/11 13:29:05;;;;;;;4.90;3.33;;;6.20;62.70;;;;;;4927364;29;20380;-88
2023/12/11 13:31:31;;;;;;;5.85;3.55;;;6.10;63.00;;;;;;4916825;29;20074;-90
2023/12/11 13:33:57;;;;;;;5.18;3.10;;;6.10;63.10;;;;;;4930990;29;20035;-89
2023/12/11 13:36:23;;;;;;;3.95;3.20;;;6.20;63.20;;;;;;4948115;28;20037;-88
2023/12/11 13:38:49;;;;;;;6.72;3.17;;;6.20;63.20;;;;;;4938160;29;20031;-91
2023/12/11 13:41:15;;;;;;;4.75;2.97;;;6.20;63.10;;;;;;4948625;29;20059;-89
2023/12/11 13:43:41;;;;;;;6.28;3.25;;;6.10;63.40;;;;;;4932443;29;20114;-88
2023/12/11 13:46:08;;;;;;;5.13;2.90;;;6.10;63.70;;;;;;4940524;29;20042;-87
2023/12/11 13:48:34;;;;;;;5.03;3.38;;;6.10;63.50;;;;;;4956519;28;20074;-87
2023/12/11 13:51:00;;;;;;;4.35;3.15;;;6.10;63.50;;;;;;4916405;29;20066;-88
2023/12/11 13:53:26;;;;;;;6.03;3.33;;;6.10;63.60;;;;;;4932238;29;20583;-89
2023/12/11 13:55:53;;;;;;;6.00;3.30;;;6.10;63.30;;;;;;4911335;29;20047;-88